Time;durP1;ratioP1;P1;durP2;ratioP2;P2;SDS_P1;SDS_P2;PMS_P1;PMS_P2;Temp;Humidity;BMP_temperature;BMP_pressure;BME280_temperature;BME280_humidity;BME280_pressure;Samples;Min_cycle;Max_cycle;Signal;HPM_P1;HPM_P2
2023/06/21 00:00:13;;;;;;;1.50;0.90;;;22.10;98.20;;;;;;4987318;28;20496;-82
2023/06/21 00:02:42;;;;;;;1.50;0.90;;;22.10;98.20;;;;;;4985637;28;20559;-82
2023/06/21 00:05:09;;;;;;;1.50;0.90;;;22.10;98.20;;;;;;4987487;28;20513;-81
2023/06/21 00:07:37;;;;;;;1.50;0.90;;;22.00;98.20;;;;;;4987102;28;20576;-81
2023/06/21 00:10:07;;;;;;;1.50;0.90;;;22.00;98.20;;;;;;4987188;28;20568;-82
2023/06/21 00:12:34;;;;;;;1.50;0.90;;;21.90;98.20;;;;;;4991173;28;20480;-82
2023/06/21 00:15:01;;;;;;;1.50;0.90;;;21.80;98.20;;;;;;4990375;28;20487;-82
2023/06/21 00:17:28;;;;;;;1.47;0.90;;;21.80;98.20;;;;;;4984913;28;20995;-82
2023/06/21 00:19:56;;;;;;;1.50;0.90;;;21.70;98.20;;;;;;4996128;28;20493;-82
2023/06/21 00:22:23;;;;;;;1.50;0.90;;;21.70;98.20;;;;;;4981200;28;20869;-82
2023/06/21 00:24:50;;;;;;;1.47;0.90;;;21.70;98.20;;;;;;4995654;28;20480;-82
2023/06/21 00:27:17;;;;;;;1.47;0.90;;;21.60;98.20;;;;;;4980175;28;20524;-81
2023/06/21 00:29:43;;;;;;;1.50;0.90;;;21.60;98.20;;;;;;4991115;28;20890;-82
2023/06/21 00:32:11;;;;;;;1.50;0.90;;;21.60;98.20;;;;;;4985424;28;20476;-82
2023/06/21 00:34:38;;;;;;;1.50;0.90;;;21.50;98.20;;;;;;4992149;28;20545;-81
2023/06/21 00:37:06;;;;;;;1.50;0.93;;;21.50;98.20;;;;;;4980926;28;20485;-82
2023/06/21 00:39:33;;;;;;;1.47;0.90;;;21.50;98.20;;;;;;4991680;28;20489;-82
2023/06/21 00:42:00;;;;;;;1.50;0.90;;;21.50;98.20;;;;;;4980272;28;21019;-82
2023/06/21 00:44:27;;;;;;;1.47;0.90;;;21.50;98.20;;;;;;4991095;28;20489;-82
2023/06/21 00:46:54;;;;;;;1.47;0.90;;;21.50;98.20;;;;;;4981927;28;20485;-82
2023/06/21 00:49:20;;;;;;;1.50;0.90;;;21.50;98.20;;;;;;4991293;28;20489;-82
2023/06/21 00:51:48;;;;;;;1.50;1.20;;;21.40;98.20;;;;;;4981250;28;20492;-82
2023/06/21 00:54:17;;;;;;;1.47;0.90;;;21.40;98.20;;;;;;4995191;28;20487;-82
2023/06/21 00:56:44;;;;;;;1.50;0.90;;;21.40;98.20;;;;;;4979406;28;20492;-82
2023/06/21 00:59:11;;;;;;;1.43;0.90;;;21.40;98.20;;;;;;4992157;28;20483;-82
2023/06/21 01:01:38;;;;;;;1.50;1.10;;;21.40;98.20;;;;;;4988720;28;20495;-82
2023/06/21 01:04:08;;;;;;;1.50;0.90;;;21.40;98.20;;;;;;4999209;28;20485;-81
2023/06/21 01:06:41;;;;;;;1.50;0.97;;;21.40;98.20;;;;;;4984621;28;20563;-81
2023/06/21 01:09:15;;;;;;;1.50;0.90;;;21.50;98.20;;;;;;4988041;28;20496;-83
2023/06/21 01:11:52;;;;;;;1.50;0.90;;;21.50;98.20;;;;;;4980876;28;20473;-81
2023/06/21 01:14:27;;;;;;;1.50;0.80;;;21.50;98.20;;;;;;4984333;28;20555;-81
2023/06/21 01:16:56;;;;;;;1.50;0.90;;;21.50;98.20;;;;;;4981806;28;20524;-82
2023/06/21 01:19:33;;;;;;;1.50;0.90;;;21.50;98.20;;;;;;4992332;28;20495;-82
2023/06/21 01:22:06;;;;;;;1.47;0.90;;;21.50;98.20;;;;;;4981284;28;20480;-82
2023/06/21 01:24:42;;;;;;;1.47;0.90;;;21.50;98.20;;;;;;4983447;28;20469;-82
2023/06/21 01:27:27;;;;;;;1.47;0.90;;;21.50;98.20;;;;;;4976683;28;20492;-82
2023/06/21 01:30:00;;;;;;;1.50;0.90;;;21.40;98.20;;;;;;4989238;28;20536;-82
2023/06/21 01:32:30;;;;;;;1.47;0.90;;;21.40;98.20;;;;;;4977586;28;20476;-82
2023/06/21 01:34:57;;;;;;;1.50;0.90;;;21.40;98.20;;;;;;4988168;28;20457;-82
2023/06/21 01:37:24;;;;;;;1.47;0.90;;;21.30;98.20;;;;;;4978627;28;20545;-82
2023/06/21 01:39:52;;;;;;;1.50;0.90;;;21.20;98.20;;;;;;4987755;28;20492;-81
2023/06/21 01:42:19;;;;;;;1.47;0.90;;;21.20;98.20;;;;;;4976677;28;20484;-82
2023/06/21 01:44:46;;;;;;;1.47;0.90;;;21.10;98.20;;;;;;4989765;28;20461;-82
2023/06/21 01:47:15;;;;;;;1.47;0.90;;;21.10;98.20;;;;;;4982362;28;20506;-82
2023/06/21 01:49:42;;;;;;;1.47;0.90;;;21.10;98.20;;;;;;4997878;28;20481;-82
2023/06/21 01:52:10;;;;;;;1.50;0.90;;;21.20;98.20;;;;;;4981165;28;20488;-82
2023/06/21 01:54:43;;;;;;;1.50;0.90;;;21.10;98.20;;;;;;4993394;28;20464;-82
2023/06/21 01:57:11;;;;;;;1.50;1.00;;;21.10;98.20;;;;;;4981063;28;20481;-82
2023/06/21 01:59:38;;;;;;;1.50;1.10;;;21.00;98.20;;;;;;4993320;28;20493;-82
2023/06/21 02:02:08;;;;;;;1.47;0.90;;;21.00;98.20;;;;;;4982338;28;20985;-82
2023/06/21 02:04:38;;;;;;;1.47;0.90;;;21.00;98.20;;;;;;4993675;28;20482;-83
2023/06/21 02:07:07;;;;;;;1.50;0.90;;;21.00;98.20;;;;;;4980442;28;20491;-82
2023/06/21 02:09:34;;;;;;;1.47;0.90;;;21.00;98.20;;;;;;4990975;28;20512;-82
2023/06/21 02:12:02;;;;;;;1.50;0.90;;;21.10;98.20;;;;;;4981912;28;20481;-82
2023/06/21 02:14:29;;;;;;;1.50;0.90;;;21.00;98.20;;;;;;4992269;28;20477;-81
2023/06/21 02:16:56;;;;;;;1.43;0.90;;;21.00;98.20;;;;;;4979300;28;20504;-81
2023/06/21 02:19:24;;;;;;;1.50;0.90;;;21.00;98.20;;;;;;4988254;28;20489;-81
2023/06/21 02:21:52;;;;;;;1.50;0.90;;;20.90;98.20;;;;;;4981740;28;20476;-82
2023/06/21 02:24:19;;;;;;;1.43;0.90;;;21.00;98.20;;;;;;4994641;28;20464;-81
2023/06/21 02:26:46;;;;;;;1.50;0.90;;;20.90;98.20;;;;;;4980796;28;20473;-82
2023/06/21 02:29:13;;;;;;;1.50;0.90;;;20.90;98.20;;;;;;4993628;28;20974;-80
2023/06/21 02:31:40;;;;;;;1.50;0.90;;;20.90;98.20;;;;;;4983571;28;20488;-83
2023/06/21 02:34:06;;;;;;;1.43;0.90;;;20.90;98.20;;;;;;4994420;28;20460;-82
2023/06/21 02:36:35;;;;;;;1.50;0.90;;;20.90;98.20;;;;;;4984648;28;21229;-82
2023/06/21 02:39:04;;;;;;;1.50;0.93;;;20.90;98.20;;;;;;4992073;28;20567;-81
2023/06/21 02:41:31;;;;;;;1.47;0.90;;;20.90;98.20;;;;;;4983335;28;20473;-82
2023/06/21 02:43:57;;;;;;;1.50;0.90;;;20.90;98.20;;;;;;4991311;28;20559;-81
2023/06/21 02:46:24;;;;;;;1.50;0.90;;;20.90;98.20;;;;;;4982976;28;20491;-82
2023/06/21 02:48:51;;;;;;;1.50;0.90;;;20.80;98.20;;;;;;4991920;28;20480;-81
2023/06/21 02:51:20;;;;;;;1.43;0.90;;;20.80;98.20;;;;;;4981627;28;20867;-82
2023/06/21 02:53:47;;;;;;;1.50;1.00;;;20.80;98.20;;;;;;4992179;28;20900;-81
2023/06/21 02:56:15;;;;;;;1.50;0.90;;;20.80;98.20;;;;;;4981737;28;20849;-81
2023/06/21 02:58:42;;;;;;;1.50;1.00;;;20.80;98.20;;;;;;4991187;28;20461;-81
2023/06/21 03:01:09;;;;;;;1.50;0.90;;;20.80;98.20;;;;;;4984060;28;20479;-82
2023/06/21 03:03:35;;;;;;;1.50;0.90;;;20.80;98.20;;;;;;4995602;28;20469;-81
2023/06/21 03:06:02;;;;;;;1.43;0.90;;;20.80;98.20;;;;;;4983089;28;20461;-82
2023/06/21 03:08:31;;;;;;;1.47;0.90;;;20.80;98.20;;;;;;4992061;28;20468;-81
2023/06/21 03:10:57;;;;;;;1.50;0.90;;;20.80;98.20;;;;;;4980785;28;20461;-81
2023/06/21 03:13:25;;;;;;;1.43;0.90;;;20.80;98.20;;;;;;4992075;28;20472;-82
2023/06/21 03:15:52;;;;;;;1.50;0.93;;;20.80;98.20;;;;;;4982967;28;20461;-81
2023/06/21 03:18:19;;;;;;;1.50;0.90;;;20.80;98.20;;;;;;4994295;28;20468;-82
2023/06/21 03:20:49;;;;;;;1.47;0.90;;;20.70;98.20;;;;;;4990447;28;21011;-82
2023/06/21 03:23:17;;;;;;;1.50;0.90;;;20.70;98.20;;;;;;4967969;28;20461;-81
2023/06/21 03:25:43;;;;;;;1.47;0.90;;;20.70;98.20;;;;;;4991425;28;20536;-82
2023/06/21 03:28:10;;;;;;;1.50;0.90;;;20.70;98.20;;;;;;4983366;28;20979;-81
2023/06/21 03:30:38;;;;;;;1.47;0.90;;;20.70;98.20;;;;;;4991364;28;21006;-81
2023/06/21 03:33:05;;;;;;;1.50;1.00;;;20.70;98.20;;;;;;4983422;28;20674;-82
2023/06/21 03:35:31;;;;;;;1.50;1.00;;;20.80;98.20;;;;;;4992309;28;21027;-81
2023/06/21 03:37:58;;;;;;;1.50;0.90;;;20.70;98.20;;;;;;4982364;28;20484;-81
2023/06/21 03:40:25;;;;;;;1.47;0.90;;;20.70;98.20;;;;;;4991765;28;20503;-81
2023/06/21 03:42:52;;;;;;;1.50;0.90;;;20.60;98.20;;;;;;4983600;28;20536;-81
2023/06/21 03:45:19;;;;;;;1.50;0.90;;;20.60;98.20;;;;;;5003100;28;20469;-80
2023/06/21 03:47:47;;;;;;;1.50;0.90;;;20.60;98.20;;;;;;4995780;28;20497;-81
2023/06/21 03:50:14;;;;;;;1.47;0.90;;;20.60;98.20;;;;;;4997373;28;21076;-81
2023/06/21 03:52:41;;;;;;;1.50;0.90;;;20.60;98.20;;;;;;4985373;28;21003;-83
2023/06/21 03:55:08;;;;;;;1.50;0.90;;;20.60;98.20;;;;;;4991952;28;20457;-81
2023/06/21 03:57:35;;;;;;;1.50;0.90;;;20.60;98.20;;;;;;4983787;28;20560;-81
2023/06/21 04:00:06;;;;;;;1.47;0.90;;;20.60;98.20;;;;;;4993685;28;20482;-81
2023/06/21 04:02:33;;;;;;;1.47;0.90;;;20.60;98.20;;;;;;4984944;28;20481;-81
2023/06/21 04:05:01;;;;;;;1.43;0.90;;;20.70;98.20;;;;;;4993714;28;20457;-81
2023/06/21 04:07:28;;;;;;;1.50;0.90;;;20.80;98.20;;;;;;4984686;28;20499;-81
2023/06/21 04:09:55;;;;;;;1.50;0.90;;;20.80;98.20;;;;;;4992918;28;21170;-80
2023/06/21 04:12:21;;;;;;;1.40;0.90;;;20.90;98.20;;;;;;4983018;28;20557;-82
2023/06/21 04:14:48;;;;;;;1.50;0.90;;;20.90;98.20;;;;;;4992788;28;20465;-81
2023/06/21 04:17:15;;;;;;;1.47;0.90;;;20.90;98.20;;;;;;4984224;28;20484;-81
2023/06/21 04:19:42;;;;;;;1.50;0.90;;;21.00;98.20;;;;;;5016770;22;20510;-84
2023/06/21 04:22:25;;;;;;;1.50;0.90;;;21.00;98.20;;;;;;5020118;28;20509;-84
2023/06/21 04:24:52;;;;;;;1.43;0.90;;;21.10;98.20;;;;;;5041763;28;20447;-86
2023/06/21 04:27:22;;;;;;;1.50;1.00;;;21.10;98.20;;;;;;5019671;28;20515;-85
2023/06/21 04:32:18;;;;;;;1.50;1.00;;;21.10;98.20;;;;;;4991429;28;20465;-85
2023/06/21 04:35:21;;;;;;;1.50;1.10;;;21.10;98.20;;;;;;5006663;28;20516;-85
2023/06/21 04:37:49;;;;;;;1.50;0.90;;;21.10;98.20;;;;;;4971110;28;20516;-85
2023/06/21 04:40:17;;;;;;;1.47;0.90;;;21.10;98.20;;;;;;5013076;28;20490;-87
2023/06/21 04:42:54;;;;;;;1.50;0.90;;;21.10;98.20;;;;;;5000563;28;20474;-85
2023/06/21 04:45:26;;;;;;;1.50;0.90;;;21.10;98.20;;;;;;5002969;28;20477;-85
2023/06/21 04:47:58;;;;;;;1.50;0.90;;;21.20;98.20;;;;;;4981975;28;20464;-85
2023/06/21 04:50:55;;;;;;;1.50;0.90;;;21.20;98.20;;;;;;4993796;28;20478;-85
2023/06/21 04:53:55;;;;;;;1.50;0.90;;;21.30;98.20;;;;;;4957137;28;20509;-85
2023/06/21 04:56:37;;;;;;;1.50;0.90;;;21.50;98.20;;;;;;4978791;28;20577;-84
2023/06/21 04:59:12;;;;;;;1.47;0.90;;;21.60;98.20;;;;;;4988691;28;20464;-85
2023/06/21 05:01:40;;;;;;;1.50;0.90;;;21.70;98.20;;;;;;4991658;28;20507;-84
2023/06/21 05:04:20;;;;;;;1.47;0.90;;;21.80;98.20;;;;;;4990887;28;20497;-84
2023/06/21 05:10:04;;;;;;;1.50;0.90;;;22.20;98.20;;;;;;4993412;28;20496;-85
2023/06/21 05:15:57;;;;;;;1.50;0.90;;;22.50;98.20;;;;;;4951839;28;20470;-83
2023/06/21 05:22:19;;;;;;;1.50;0.90;;;22.70;98.20;;;;;;4987687;28;20501;-82
2023/06/21 05:24:50;;;;;;;1.50;0.90;;;22.70;98.20;;;;;;4959038;28;20501;-84
2023/06/21 05:27:27;;;;;;;1.50;0.90;;;22.80;98.20;;;;;;4983436;28;20489;-85
2023/06/21 05:30:06;;;;;;;1.50;0.90;;;22.90;98.20;;;;;;4996238;28;20538;-85
2023/06/21 05:32:33;;;;;;;1.50;0.90;;;22.90;98.20;;;;;;4983183;28;20544;-86
2023/06/21 05:35:09;;;;;;;1.50;0.90;;;22.90;98.20;;;;;;4995185;28;20511;-84
2023/06/21 05:37:36;;;;;;;1.50;1.00;;;22.90;98.20;;;;;;4981713;28;20481;-84
2023/06/21 05:40:17;;;;;;;1.50;0.90;;;23.00;98.20;;;;;;4991159;28;20502;-85
2023/06/21 05:43:31;;;;;;;1.50;0.90;;;23.00;98.20;;;;;;4982731;28;20480;-84
2023/06/21 05:46:34;;;;;;;1.43;0.90;;;23.00;98.20;;;;;;4921346;29;20492;-83
2023/06/21 05:49:01;;;;;;;1.50;0.90;;;23.00;98.20;;;;;;4928883;29;20463;-83
2023/06/21 05:51:28;;;;;;;1.50;0.90;;;22.90;98.20;;;;;;4924096;29;20961;-83
2023/06/21 05:54:33;;;;;;;1.50;0.90;;;23.00;98.20;;;;;;4936044;29;20484;-84
2023/06/21 06:00:03;;;;;;;;;;;;;;;;;;;;;
2023/06/21 06:02:37;;;;;;;1.43;0.90;;;23.20;98.20;;;;;;4930757;28;21013;-82
2023/06/21 06:05:13;;;;;;;1.50;0.90;;;23.40;98.20;;;;;;4989928;28;20972;-83
2023/06/21 06:07:40;;;;;;;1.50;0.90;;;23.50;98.20;;;;;;4979260;28;20588;-84
2023/06/21 06:10:37;;;;;;;1.50;0.90;;;23.70;98.20;;;;;;4991513;28;21071;-82
2023/06/21 06:13:09;;;;;;;1.50;0.90;;;23.80;98.20;;;;;;4908335;29;20480;-83
2023/06/21 06:15:56;;;;;;;1.50;0.90;;;24.00;98.20;;;;;;4972629;28;20569;-82
2023/06/21 06:18:27;;;;;;;1.50;0.90;;;24.10;98.20;;;;;;4957317;28;20488;-83
2023/06/21 06:21:11;;;;;;;1.50;0.90;;;24.20;98.20;;;;;;4984284;28;20938;-82
2023/06/21 06:23:44;;;;;;;2.60;1.87;;;24.30;98.20;;;;;;4982226;28;20465;-82
2023/06/21 06:26:38;;;;;;;1.50;0.90;;;24.30;98.20;;;;;;4983600;28;20489;-81
2023/06/21 06:29:12;;;;;;;1.50;0.90;;;24.40;98.20;;;;;;4986525;28;20460;-82
2023/06/21 06:31:42;;;;;;;1.50;0.90;;;24.40;98.20;;;;;;4977217;28;20485;-83
2023/06/21 06:34:18;;;;;;;1.50;0.90;;;24.40;98.20;;;;;;4992598;28;20547;-82
2023/06/21 06:36:45;;;;;;;1.50;0.90;;;24.40;98.20;;;;;;4987302;28;20487;-81
2023/06/21 06:39:18;;;;;;;1.50;0.90;;;24.40;98.20;;;;;;4992266;28;20718;-82
2023/06/21 06:41:53;;;;;;;1.50;0.90;;;24.40;98.20;;;;;;4984610;28;20651;-84
2023/06/21 06:50:45;;;;;;;1.50;0.90;;;24.60;98.20;;;;;;5000970;28;20597;-84
2023/06/21 06:56:58;;;;;;;1.50;0.90;;;25.10;98.20;;;;;;4836717;29;20480;-83
2023/06/21 06:59:27;;;;;;;1.50;0.87;;;25.40;97.70;;;;;;4912407;29;20562;-82
2023/06/21 07:01:54;;;;;;;1.47;0.87;;;25.60;97.30;;;;;;4900012;29;20498;-83
2023/06/21 07:04:21;;;;;;;1.50;0.90;;;25.80;96.30;;;;;;4914558;29;20465;-82
2023/06/21 07:06:52;;;;;;;1.50;0.90;;;26.00;96.00;;;;;;4900026;29;20492;-82
2023/06/21 07:09:19;;;;;;;1.50;0.90;;;26.30;95.60;;;;;;4971054;28;20479;-82
2023/06/21 07:14:41;;;;;;;1.50;0.90;;;26.50;93.70;;;;;;4987680;28;20543;-83
2023/06/21 07:17:08;;;;;;;1.50;0.83;;;26.80;93.70;;;;;;4979470;28;20496;-80
2023/06/21 07:19:35;;;;;;;1.50;0.80;;;26.90;93.00;;;;;;5002343;28;20484;-82
2023/06/21 07:22:44;;;;;;;1.47;0.80;;;27.10;92.40;;;;;;4984782;28;20540;-82
2023/06/21 07:25:11;;;;;;;1.50;0.90;;;27.20;91.70;;;;;;4972277;28;20831;-83
2023/06/21 07:27:46;;;;;;;1.50;0.80;;;27.40;91.60;;;;;;4992668;28;20496;-83
2023/06/21 07:30:13;;;;;;;1.50;0.83;;;27.50;91.70;;;;;;4994716;28;20888;-84
2023/06/21 07:33:06;;;;;;;1.50;0.90;;;27.70;91.50;;;;;;4981661;28;20764;-82
2023/06/21 07:35:33;;;;;;;1.50;0.80;;;28.00;91.00;;;;;;4976243;28;20469;-81
2023/06/21 07:38:26;;;;;;;1.50;0.83;;;28.20;90.40;;;;;;4983162;28;20560;-81
2023/06/21 07:40:53;;;;;;;1.50;0.80;;;28.40;89.10;;;;;;4975384;28;20531;-82
2023/06/21 07:43:21;;;;;;;1.50;0.80;;;28.50;88.90;;;;;;4987217;28;20479;-82
2023/06/21 07:45:54;;;;;;;1.47;0.80;;;28.50;89.50;;;;;;4981097;28;20469;-84
2023/06/21 07:48:27;;;;;;;1.50;0.90;;;28.60;87.90;;;;;;4982229;28;20619;-84
2023/06/21 07:51:00;;;;;;;1.47;0.80;;;28.60;87.20;;;;;;4980246;28;21025;-85
2023/06/21 07:53:38;;;;;;;1.47;0.80;;;28.60;87.90;;;;;;4987286;28;20501;-84
2023/06/21 07:56:14;;;;;;;1.50;0.80;;;28.60;88.40;;;;;;4977508;28;20471;-85
2023/06/21 07:59:05;;;;;;;1.50;0.80;;;28.50;88.10;;;;;;4985066;28;20467;-84
2023/06/21 08:01:32;;;;;;;1.50;0.80;;;28.30;88.60;;;;;;4984656;28;20500;-84
2023/06/21 08:04:03;;;;;;;1.47;0.80;;;28.20;89.30;;;;;;4984531;28;20521;-84
2023/06/21 08:06:30;;;;;;;1.47;0.80;;;28.20;90.00;;;;;;4976038;28;20568;-82
2023/06/21 08:08:58;;;;;;;1.47;0.87;;;28.30;88.90;;;;;;4989772;28;20558;-82
2023/06/21 08:11:25;;;;;;;1.60;1.30;;;28.40;89.30;;;;;;4981945;28;20477;-82
2023/06/21 08:13:52;;;;;;;1.50;0.80;;;28.50;88.60;;;;;;4991598;28;20471;-81
2023/06/21 08:16:19;;;;;;;1.50;1.00;;;28.40;88.50;;;;;;4979218;28;20488;-82
2023/06/21 08:18:46;;;;;;;1.47;0.80;;;28.40;89.10;;;;;;4990875;28;20451;-82
2023/06/21 08:21:13;;;;;;;1.47;0.80;;;28.40;88.50;;;;;;4984849;28;21211;-83
2023/06/21 08:23:39;;;;;;;1.50;0.90;;;28.60;87.80;;;;;;4984826;28;20462;-83
2023/06/21 08:26:09;;;;;;;1.50;0.80;;;28.80;87.30;;;;;;4979970;28;21714;-83
2023/06/21 08:28:36;;;;;;;1.50;0.80;;;29.00;87.50;;;;;;4990708;28;20551;-84
2023/06/21 08:31:03;;;;;;;1.47;0.80;;;29.10;87.10;;;;;;4978334;28;20577;-82
2023/06/21 08:36:14;;;;;;;2.77;1.23;;;29.10;87.00;;;;;;4973579;28;20492;-83
2023/06/21 08:38:40;;;;;;;1.50;0.90;;;29.00;86.90;;;;;;4988849;28;20467;-82
2023/06/21 08:41:15;;;;;;;1.50;0.90;;;28.70;87.10;;;;;;4982884;28;20549;-83
2023/06/21 08:43:55;;;;;;;1.50;0.90;;;28.50;88.10;;;;;;4997273;28;20452;-83
2023/06/21 08:46:40;;;;;;;1.47;0.80;;;28.60;88.60;;;;;;4971684;28;20478;-85
2023/06/21 08:49:40;;;;;;;1.50;0.90;;;28.70;87.50;;;;;;4956791;28;20468;-85
2023/06/21 08:58:32;;;;;;;1.80;1.43;;;29.00;87.90;;;;;;4919583;28;20637;-83
2023/06/21 09:01:08;;;;;;;1.50;1.10;;;29.20;86.00;;;;;;4938068;28;20498;-84
2023/06/21 09:03:55;;;;;;;1.50;0.90;;;29.40;85.20;;;;;;4968703;28;21174;-84
2023/06/21 09:06:24;;;;;;;1.50;0.80;;;29.70;85.00;;;;;;4979303;28;20504;-83
2023/06/21 09:08:53;;;;;;;1.50;1.00;;;30.00;85.40;;;;;;4982611;28;20475;-84
2023/06/21 09:11:22;;;;;;;1.50;0.90;;;30.40;83.90;;;;;;4969481;28;20526;-83
2023/06/21 09:13:51;;;;;;;1.50;0.80;;;30.60;82.50;;;;;;4983324;28;20469;-83
2023/06/21 09:16:19;;;;;;;1.50;0.80;;;31.00;82.10;;;;;;4973436;28;20504;-82
2023/06/21 09:18:50;;;;;;;1.50;0.80;;;31.30;81.10;;;;;;4985499;28;20463;-83
2023/06/21 09:21:19;;;;;;;1.50;1.00;;;31.30;80.00;;;;;;4978451;28;20515;-83
2023/06/21 09:23:48;;;;;;;1.50;0.80;;;31.40;79.50;;;;;;4987157;28;20484;-83
2023/06/21 09:26:15;;;;;;;1.50;0.80;;;31.30;79.60;;;;;;4978418;28;20473;-83
2023/06/21 09:28:45;;;;;;;1.43;0.80;;;31.40;80.00;;;;;;4992005;28;20299;-83
2023/06/21 09:31:14;;;;;;;1.43;0.80;;;31.40;79.20;;;;;;4982254;28;20244;-80
2023/06/21 09:33:52;;;;;;;1.47;0.80;;;31.20;79.20;;;;;;4994018;28;20466;-84
2023/06/21 09:36:19;;;;;;;1.50;0.87;;;31.10;80.50;;;;;;4982646;28;20518;-85
2023/06/21 09:38:50;;;;;;;1.50;0.80;;;31.20;80.50;;;;;;4986896;28;20461;-85
2023/06/21 09:41:21;;;;;;;1.50;0.80;;;31.50;81.00;;;;;;4972439;28;20315;-83
2023/06/21 09:43:49;;;;;;;1.47;0.80;;;31.70;78.10;;;;;;4984736;28;20281;-84
2023/06/21 09:46:27;;;;;;;1.43;0.83;;;31.80;78.60;;;;;;4975421;28;20647;-85
2023/06/21 09:49:09;;;;;;;1.47;0.87;;;32.10;78.00;;;;;;4989769;28;20236;-85
2023/06/21 09:51:43;;;;;;;1.50;0.80;;;32.30;77.40;;;;;;4984303;28;20236;-84
2023/06/21 09:54:10;;;;;;;1.50;0.80;;;32.50;76.60;;;;;;4985079;28;20698;-84
2023/06/21 09:56:54;;;;;;;1.47;0.80;;;32.60;75.50;;;;;;4983698;28;20691;-85
2023/06/21 09:59:22;;;;;;;1.43;0.80;;;32.50;74.20;;;;;;4995257;28;20206;-85
2023/06/21 10:04:54;;;;;;;1.50;1.10;;;32.00;75.90;;;;;;4977269;28;20210;-84
2023/06/21 10:07:26;;;;;;;1.43;0.80;;;31.80;76.60;;;;;;4971932;28;20253;-84
2023/06/21 10:09:56;;;;;;;1.43;0.80;;;31.70;77.60;;;;;;4992190;28;20589;-85
2023/06/21 10:12:31;;;;;;;1.47;0.80;;;31.70;77.90;;;;;;4975906;28;20318;-83
2023/06/21 10:15:04;;;;;;;1.47;0.80;;;32.00;77.40;;;;;;4992877;28;20221;-85
2023/06/21 10:17:34;;;;;;;1.43;0.80;;;32.20;76.70;;;;;;4983976;28;20225;-84
2023/06/21 10:23:35;;;;;;;1.60;1.20;;;32.50;76.30;;;;;;4938152;28;20231;-81
2023/06/21 10:26:18;;;;;;;1.50;1.00;;;32.80;75.40;;;;;;4992235;28;20286;-81
2023/06/21 10:28:51;;;;;;;1.48;0.80;;;33.10;75.80;;;;;;4998905;28;20205;-81
2023/06/21 10:31:20;;;;;;;1.50;0.80;;;33.50;74.40;;;;;;4980104;28;20770;-80
2023/06/21 10:33:50;;;;;;;1.48;0.80;;;33.60;73.30;;;;;;5001726;28;20194;-81
2023/06/21 10:36:23;;;;;;;1.45;0.80;;;33.40;74.10;;;;;;4988773;28;20227;-82
2023/06/21 10:38:54;;;;;;;1.45;0.80;;;33.30;73.40;;;;;;4987622;28;20256;-81
2023/06/21 10:41:22;;;;;;;2.20;1.13;;;33.40;73.20;;;;;;4985211;28;20492;-81
2023/06/21 10:43:49;;;;;;;1.48;0.80;;;33.20;73.30;;;;;;4997854;28;20221;-82
2023/06/21 10:46:17;;;;;;;1.40;0.80;;;33.00;74.20;;;;;;4991438;28;20711;-81
2023/06/21 10:48:45;;;;;;;1.45;0.80;;;33.00;74.70;;;;;;4999106;28;20215;-81
2023/06/21 10:51:14;;;;;;;1.47;0.80;;;33.20;74.90;;;;;;4983418;28;20332;-79
2023/06/21 10:53:57;;;;;;;4.60;3.27;;;33.40;73.40;;;;;;4996180;28;20200;-81
2023/06/21 10:56:31;;;;;;;1.43;0.80;;;33.60;73.90;;;;;;4981070;28;20299;-80
2023/06/21 10:58:58;;;;;;;1.45;0.80;;;33.80;72.00;;;;;;4992896;28;20205;-81
2023/06/21 11:01:25;;;;;;;1.42;0.80;;;33.90;71.70;;;;;;4982273;28;20244;-80
2023/06/21 11:03:52;;;;;;;1.45;0.80;;;33.90;71.60;;;;;;4990248;28;20229;-81
2023/06/21 11:06:26;;;;;;;1.40;0.80;;;33.90;71.60;;;;;;4982103;28;20229;-81
2023/06/21 11:08:54;;;;;;;1.45;0.80;;;33.80;71.10;;;;;;4989797;28;20205;-82
2023/06/21 11:11:31;;;;;;;1.40;0.80;;;33.60;73.30;;;;;;4980000;28;20604;-83
2023/06/21 11:14:01;;;;;;;1.48;0.80;;;33.50;71.90;;;;;;4990410;28;20213;-82
2023/06/21 11:16:31;;;;;;;1.50;1.00;;;33.20;72.10;;;;;;4980102;28;20681;-82
2023/06/21 11:19:17;;;;;;;1.40;0.80;;;33.30;73.00;;;;;;4989261;28;20217;-82
2023/06/21 11:25:20;;;;;;;1.40;0.80;;;33.10;71.80;;;;;;4992399;28;20282;-81
2023/06/21 11:28:26;;;;;;;1.90;1.38;;;33.20;70.50;;;;;;4982230;28;20248;-82
2023/06/21 11:34:23;;;;;;;1.40;0.80;;;33.80;71.20;;;;;;4970493;28;20298;-82
2023/06/21 11:36:51;;;;;;;2.27;2.07;;;34.00;69.90;;;;;;4980255;28;20321;-83
2023/06/21 11:39:30;;;;;;;1.45;0.80;;;33.90;70.40;;;;;;4998694;28;20205;-84
2023/06/21 11:42:01;;;;;;;1.45;0.80;;;33.70;71.30;;;;;;4982587;28;20304;-84
2023/06/21 11:44:31;;;;;;;3.10;1.47;;;33.50;70.30;;;;;;4998736;28;20223;-81
2023/06/21 11:47:21;;;;;;;1.98;1.67;;;33.30;69.10;;;;;;4985906;28;20230;-84
2023/06/21 11:50:15;;;;;;;1.43;0.80;;;33.30;70.50;;;;;;4998333;28;20225;-82
2023/06/21 11:52:43;;;;;;;1.45;0.90;;;33.60;70.30;;;;;;4984537;28;20225;-82
2023/06/21 11:55:14;;;;;;;1.40;0.80;;;33.80;70.50;;;;;;4989958;28;20212;-83
2023/06/21 11:57:45;;;;;;;1.48;0.90;;;33.90;69.80;;;;;;4977640;28;20228;-83
2023/06/21 12:00:18;;;;;;;1.40;0.90;;;33.90;67.90;;;;;;4983215;28;20792;-82
2023/06/21 12:02:45;;;;;;;1.40;0.80;;;34.00;68.90;;;;;;4970362;28;20291;-82
2023/06/21 12:05:11;;;;;;;1.45;0.80;;;34.00;68.10;;;;;;4997519;28;20213;-82
2023/06/21 12:07:38;;;;;;;1.48;0.88;;;33.90;69.10;;;;;;4979858;28;20261;-83
2023/06/21 12:10:06;;;;;;;1.45;0.80;;;33.90;68.90;;;;;;5005951;28;20225;-83
2023/06/21 12:12:33;;;;;;;1.40;0.80;;;33.90;68.90;;;;;;4989943;28;20236;-82
2023/06/21 12:15:00;;;;;;;1.40;0.80;;;34.00;68.90;;;;;;4998213;28;20220;-82
2023/06/21 12:17:29;;;;;;;1.42;0.80;;;34.10;68.90;;;;;;4978283;28;20229;-82
2023/06/21 12:20:03;;;;;;;1.50;0.90;;;34.20;67.20;;;;;;4987558;28;20660;-82
2023/06/21 12:25:19;;;;;;;1.50;1.00;;;34.40;67.90;;;;;;4990774;28;20231;-83
2023/06/21 12:27:55;;;;;;;1.40;0.80;;;34.30;68.50;;;;;;4983191;28;20630;-83
2023/06/21 12:30:25;;;;;;;1.40;0.80;;;34.40;67.40;;;;;;5000064;28;20335;-79
2023/06/21 12:32:53;;;;;;;1.40;0.80;;;34.40;66.70;;;;;;4985404;28;20225;-82
2023/06/21 12:35:21;;;;;;;1.42;0.80;;;34.60;67.00;;;;;;4983916;28;20283;-81
2023/06/21 12:37:49;;;;;;;1.45;0.80;;;34.70;66.10;;;;;;4981547;28;20731;-80
2023/06/21 12:40:18;;;;;;;1.40;0.80;;;34.80;66.00;;;;;;4995910;28;20272;-81
2023/06/21 12:43:12;;;;;;;1.45;0.80;;;35.00;65.90;;;;;;4987643;28;20237;-84
2023/06/21 12:45:45;;;;;;;1.60;1.20;;;35.20;65.50;;;;;;4992013;28;20293;-85
2023/06/21 12:48:20;;;;;;;1.40;0.80;;;35.10;66.70;;;;;;4962666;28;20697;-84
2023/06/21 12:50:55;;;;;;;1.42;0.80;;;34.90;66.90;;;;;;4978831;28;20230;-86
2023/06/21 12:53:25;;;;;;;1.42;0.80;;;34.90;66.20;;;;;;4981364;28;20240;-85
2023/06/21 12:55:51;;;;;;;1.42;0.80;;;34.70;66.70;;;;;;4978308;28;20217;-84
2023/06/21 12:58:20;;;;;;;1.40;0.80;;;34.50;67.10;;;;;;4975922;28;20198;-84
2023/06/21 13:01:36;;;;;;;1.40;0.80;;;34.40;66.20;;;;;;4995625;28;20225;-84
2023/06/21 13:04:08;;;;;;;1.50;1.00;;;34.70;65.40;;;;;;4989149;28;20304;-84
2023/06/21 13:06:35;;;;;;;1.40;0.80;;;34.70;65.30;;;;;;4981303;28;20252;-84
2023/06/21 13:09:06;;;;;;;1.50;1.10;;;34.90;65.50;;;;;;4986019;28;20254;-84
2023/06/21 13:11:34;;;;;;;1.40;0.90;;;34.90;65.10;;;;;;4976108;28;20229;-83
2023/06/21 13:14:01;;;;;;;1.40;0.80;;;34.80;65.40;;;;;;4982703;28;20555;-83
2023/06/21 13:16:28;;;;;;;1.40;0.80;;;34.80;65.80;;;;;;4969447;28;20746;-83
2023/06/21 13:18:55;;;;;;;1.40;0.80;;;34.90;64.50;;;;;;4978646;28;20213;-82
2023/06/21 13:21:24;;;;;;;1.40;0.80;;;34.90;64.90;;;;;;4980280;28;20239;-84
2023/06/21 13:23:54;;;;;;;2.22;1.88;;;35.00;64.90;;;;;;4989391;28;20236;-85
2023/06/21 13:26:21;;;;;;;1.40;0.80;;;35.20;64.30;;;;;;4985941;28;20313;-84
2023/06/21 13:28:50;;;;;;;1.40;0.80;;;35.40;64.80;;;;;;4991169;28;20841;-84
2023/06/21 13:31:17;;;;;;;1.45;0.88;;;35.60;64.00;;;;;;4987798;28;20281;-82
2023/06/21 13:40:23;;;;;;;2.15;1.20;;;35.70;62.90;;;;;;4967344;28;20304;-83
2023/06/21 13:42:50;;;;;;;1.50;1.30;;;35.70;63.20;;;;;;4977354;28;20296;-83
2023/06/21 13:45:17;;;;;;;1.40;0.80;;;35.90;63.30;;;;;;4989301;28;20513;-84
2023/06/21 13:47:44;;;;;;;1.40;0.80;;;35.90;63.70;;;;;;4973894;28;20232;-83
2023/06/21 13:50:12;;;;;;;1.40;0.80;;;35.60;63.80;;;;;;4991128;28;20354;-83
2023/06/21 13:52:38;;;;;;;1.40;0.80;;;35.20;64.70;;;;;;4979770;28;20253;-83
2023/06/21 13:55:08;;;;;;;1.40;0.80;;;35.00;65.40;;;;;;4993710;28;20571;-84
2023/06/21 13:57:40;;;;;;;4.90;2.25;;;35.20;64.70;;;;;;4981086;28;20687;-85
2023/06/21 14:00:13;;;;;;;1.40;0.80;;;35.30;64.50;;;;;;4992843;28;20217;-85
2023/06/21 14:02:40;;;;;;;1.70;1.42;;;35.50;63.80;;;;;;4981256;28;20460;-83
2023/06/21 14:05:14;;;;;;;1.40;0.80;;;35.60;63.30;;;;;;4986578;28;20228;-84
2023/06/21 14:07:43;;;;;;;1.40;0.80;;;35.70;62.70;;;;;;4985594;28;20235;-84
2023/06/21 14:10:11;;;;;;;3.05;1.90;;;35.70;62.00;;;;;;4993469;28;20260;-84